Time;durP1;ratioP1;P1;durP2;ratioP2;P2;SDS_P1;SDS_P2;PMS_P1;PMS_P2;Temp;Humidity;BMP_temperature;BMP_pressure;BME280_temperature;BME280_humidity;BME280_pressure;Samples;Min_cycle;Max_cycle;Signal;HPM_P1;HPM_P2
2023/01/23 00:02:14;;;;;;;;;;;;;;;-2.85;100.00;97569.25;5048468;28;19940;-67
2023/01/23 00:04:39;;;;;;;;;;;;;;;-2.95;100.00;97573.47;5044480;28;19924;-67
2023/01/23 00:07:04;;;;;;;;;;;;;;;-3.07;100.00;97572.84;5039577;28;19923;-65
2023/01/23 00:09:30;;;;;;;;;;;;;;;-3.16;100.00;97575.19;5065847;28;20370;-68
2023/01/23 00:11:56;;;;;;;;;;;;;;;-3.13;100.00;97581.94;5052511;28;20284;-67
2023/01/23 00:14:21;;;;;;;;;;;;;;;-3.18;100.00;97580.00;5038915;28;19986;-69
2023/01/23 00:16:46;;;;;;;;;;;;;;;-3.13;100.00;97582.75;5044070;28;19970;-67
2023/01/23 00:19:11;;;;;;;;;;;;;;;-3.15;100.00;97578.69;5039093;28;19990;-68
2023/01/23 00:21:38;;;;;;;;;;;;;;;-3.18;100.00;97582.69;5026049;28;19963;-66
2023/01/23 00:24:04;;;;;;;;;;;;;;;-3.18;100.00;97576.53;5045426;28;19927;-66
2023/01/23 00:26:31;;;;;;;;;;;;;;;-3.20;100.00;97586.69;5046496;28;20010;-69
2023/01/23 00:28:56;;;;;;;;;;;;;;;-3.23;100.00;97587.22;5055173;28;19916;-66
2023/01/23 00:31:24;;;;;;;;;;;;;;;-3.29;100.00;97581.00;5050222;28;20862;-67
2023/01/23 00:33:52;;;;;;;;;;;;;;;-3.33;100.00;97575.34;5056084;28;19920;-70
2023/01/23 00:36:18;;;;;;;;;;;;;;;-3.28;100.00;97578.06;5047229;28;19921;-67
2023/01/23 00:38:44;;;;;;;;;;;;;;;-3.22;100.00;97584.28;5029216;28;19917;-68
2023/01/23 00:41:09;;;;;;;;;;;;;;;-3.20;100.00;97587.50;5039411;28;19923;-67
2023/01/23 00:43:35;;;;;;;;;;;;;;;-3.21;100.00;97593.13;5043664;28;19924;-68
2023/01/23 00:46:00;;;;;;;;;;;;;;;-3.12;100.00;97586.22;5046851;28;20012;-68
2023/01/23 00:48:25;;;;;;;;;;;;;;;-3.08;100.00;97581.94;5062678;28;19970;-69
2023/01/23 00:50:51;;;;;;;;;;;;;;;-3.08;100.00;97582.78;5017975;28;19917;-68
2023/01/23 00:53:16;;;;;;;;;;;;;;;-3.10;100.00;97587.59;5046915;28;19916;-68
2023/01/23 00:55:42;;;;;;;;;;;;;;;-3.15;100.00;97595.59;5034872;28;19936;-69
2023/01/23 00:58:07;;;;;;;;;;;;;;;-3.06;100.00;97593.25;5038468;28;20285;-68
2023/01/23 01:00:33;;;;;;;;;;;;;;;-3.02;100.00;97609.63;5043368;28;19924;-69
2023/01/23 01:03:00;;;;;;;;;;;;;;;-3.07;100.00;97596.97;5034397;28;19935;-68
2023/01/23 01:05:25;;;;;;;;;;;;;;;-3.04;100.00;97596.47;5046673;28;19921;-68
2023/01/23 01:07:50;;;;;;;;;;;;;;;-2.89;100.00;97593.09;5043796;28;19921;-68
2023/01/23 01:10:16;;;;;;;;;;;;;;;-3.05;100.00;97589.50;5026279;28;20019;-68
2023/01/23 01:12:41;;;;;;;;;;;;;;;-3.14;100.00;97599.88;5042712;28;19921;-66
2023/01/23 01:15:07;;;;;;;;;;;;;;;-3.21;100.00;97599.28;5038455;28;19917;-66
2023/01/23 01:17:33;;;;;;;;;;;;;;;-3.28;100.00;97591.47;5057588;28;20382;-68
2023/01/23 01:19:58;;;;;;;;;;;;;;;-3.31;100.00;97591.97;5042513;28;20022;-67
2023/01/23 01:22:24;;;;;;;;;;;;;;;-3.36;100.00;97591.13;5038269;28;19925;-67
2023/01/23 01:24:49;;;;;;;;;;;;;;;-3.31;100.00;97601.88;5041812;28;19990;-67
2023/01/23 01:27:14;;;;;;;;;;;;;;;-3.41;100.00;97591.88;5037930;28;20011;-69
2023/01/23 01:29:40;;;;;;;;;;;;;;;-3.41;100.00;97588.41;5043246;28;19924;-69
2023/01/23 01:32:05;;;;;;;;;;;;;;;-3.56;100.00;97583.72;5035337;28;20459;-66
2023/01/23 01:34:30;;;;;;;;;;;;;;;-3.57;100.00;97582.88;5038986;28;20318;-67
2023/01/23 01:36:56;;;;;;;;;;;;;;;-3.55;100.00;97582.63;5041082;28;20393;-67
2023/01/23 01:39:21;;;;;;;;;;;;;;;-3.50;100.00;97596.88;5023992;28;19975;-69
2023/01/23 01:41:46;;;;;;;;;;;;;;;-3.65;100.00;97588.72;5023038;28;20294;-67
2023/01/23 01:44:20;;;;;;;;;;;;;;;-3.72;100.00;97602.28;5017489;28;19924;-68
2023/01/23 01:46:46;;;;;;;;;;;;;;;-3.72;100.00;97601.50;5022379;28;19926;-69
2023/01/23 01:49:20;;;;;;;;;;;;;;;-3.77;100.00;97598.75;5014051;28;20083;-68
2023/01/23 01:52:15;;;;;;;;;;;;;;;-3.77;100.00;97588.06;5023994;28;19921;-68
2023/01/23 01:54:46;;;;;;;;;;;;;;;-3.76;100.00;97589.66;5039441;28;19917;-69
2023/01/23 01:57:15;;;;;;;;;;;;;;;-3.77;100.00;97586.16;5032361;28;19921;-68
2023/01/23 01:59:49;;;;;;;;;;;;;;;-3.94;100.00;97602.34;5022954;28;19925;-68
2023/01/23 02:02:22;;;;;;;;;;;;;;;-3.96;100.00;97592.91;5018197;28;19979;-68
2023/01/23 02:04:51;;;;;;;;;;;;;;;-3.91;100.00;97598.34;5021306;28;19924;-68
2023/01/23 02:07:24;;;;;;;;;;;;;;;-4.01;100.00;97611.63;5017717;28;19976;-68
2023/01/23 02:09:51;;;;;;;;;;;;;;;-4.06;100.00;97615.84;5023363;28;20381;-68
2023/01/23 02:12:16;;;;;;;;;;;;;;;-4.14;100.00;97618.13;5017435;28;19921;-68
2023/01/23 02:14:42;;;;;;;;;;;;;;;-4.05;100.00;97605.97;5021511;28;19924;-68
2023/01/23 02:17:08;;;;;;;;;;;;;;;-4.10;100.00;97606.69;5016889;28;19922;-68
2023/01/23 02:19:38;;;;;;;;;;;;;;;-4.26;100.00;97608.38;5022569;28;20389;-68
2023/01/23 02:22:17;;;;;;;;;;;;;;;-4.30;100.00;97606.47;5019342;28;20573;-68
2023/01/23 02:24:49;;;;;;;;;;;;;;;-4.40;100.00;97606.31;5038016;28;19921;-68
2023/01/23 02:27:15;;;;;;;;;;;;;;;-4.37;100.00;97606.63;5035235;28;19917;-68
2023/01/23 02:29:44;;;;;;;;;;;;;;;-4.39;100.00;97600.72;5033281;28;19970;-69
2023/01/23 02:32:10;;;;;;;;;;;;;;;-4.41;100.00;97597.50;5040398;28;19917;-68
2023/01/23 02:34:36;;;;;;;;;;;;;;;-4.40;100.00;97595.63;5029975;28;19928;-67
2023/01/23 02:37:02;;;;;;;;;;;;;;;-4.45;100.00;97599.03;5032289;28;19917;-68
2023/01/23 02:39:28;;;;;;;;;;;;;;;-4.47;100.00;97598.47;5015109;28;19916;-68
2023/01/23 02:41:54;;;;;;;;;;;;;;;-4.47;100.00;97596.59;5042816;28;20294;-68
2023/01/23 02:44:27;;;;;;;;;;;;;;;-4.51;100.00;97586.66;5015577;28;19940;-67
2023/01/23 02:46:58;;;;;;;;;;;;;;;-4.50;100.00;97590.94;5006915;28;19917;-69
2023/01/23 02:49:23;;;;;;;;;;;;;;;-4.57;100.00;97579.59;5037179;28;20100;-67
2023/01/23 02:51:49;;;;;;;;;;;;;;;-4.58;100.00;97592.19;5041991;28;19921;-68
2023/01/23 02:54:15;;;;;;;;;;;;;;;-4.61;100.00;97592.66;5058482;28;20019;-69
2023/01/23 02:56:41;;;;;;;;;;;;;;;-4.58;100.00;97589.50;5041880;28;19917;-69
2023/01/23 03:02:05;;;;;;;;;;;;;;;-4.55;100.00;97596.25;4979894;28;19980;-70
2023/01/23 03:04:30;;;;;;;;;;;;;;;-4.64;100.00;97591.31;5040836;28;19963;-68
2023/01/23 03:06:55;;;;;;;;;;;;;;;-4.62;100.00;97596.41;5041297;28;20374;-69
2023/01/23 03:09:21;;;;;;;;;;;;;;;-4.57;100.00;97587.63;5037208;28;19948;-68
2023/01/23 03:11:47;;;;;;;;;;;;;;;-4.61;100.00;97596.16;5045262;28;19921;-69
2023/01/23 03:14:16;;;;;;;;;;;;;;;-4.59;100.00;97590.56;5021732;28;19917;-69
2023/01/23 03:16:43;;;;;;;;;;;;;;;-4.49;100.00;97592.56;5044951;28;20020;-69
2023/01/23 03:19:09;;;;;;;;;;;;;;;-4.56;100.00;97594.59;5041193;28;20015;-69
2023/01/23 03:21:36;;;;;;;;;;;;;;;-4.71;100.00;97601.34;5045701;28;20433;-68
2023/01/23 03:24:02;;;;;;;;;;;;;;;-4.78;100.00;97606.06;5065278;28;20401;-68
2023/01/23 03:26:28;;;;;;;;;;;;;;;-4.83;100.00;97606.78;5048224;28;19939;-69
2023/01/23 03:31:37;;;;;;;;;;;;;;;-4.89;100.00;97615.81;5045271;28;20016;-69
2023/01/23 03:34:03;;;;;;;;;;;;;;;-4.87;100.00;97624.38;5043827;28;19999;-67
2023/01/23 03:36:28;;;;;;;;;;;;;;;-4.95;100.00;97616.78;5018988;28;19924;-68
2023/01/23 03:41:40;;;;;;;;;;;;;;;-5.02;100.00;97610.81;5059549;28;19927;-68
2023/01/23 03:44:06;;;;;;;;;;;;;;;-5.02;100.00;97608.13;5040518;28;19928;-68
2023/01/23 03:46:32;;;;;;;;;;;;;;;-5.07;100.00;97610.72;5044660;28;19939;-68
2023/01/23 03:48:57;;;;;;;;;;;;;;;-5.12;100.00;97621.31;5045097;28;19917;-68
2023/01/23 03:51:22;;;;;;;;;;;;;;;-5.14;100.00;97626.09;5046992;28;19929;-67
2023/01/23 03:53:47;;;;;;;;;;;;;;;-5.14;100.00;97620.75;5062272;28;19916;-67
2023/01/23 03:56:13;;;;;;;;;;;;;;;-5.16;100.00;97626.34;5039767;28;19920;-69
2023/01/23 03:58:38;;;;;;;;;;;;;;;-5.14;100.00;97629.56;5043794;28;19923;-67
2023/01/23 04:01:07;;;;;;;;;;;;;;;-5.09;100.00;97626.97;5040782;28;20031;-67
2023/01/23 04:03:32;;;;;;;;;;;;;;;-5.15;100.00;97624.47;5041480;28;19933;-67
2023/01/23 04:05:57;;;;;;;;;;;;;;;-5.16;100.00;97621.00;5043425;28;19917;-67
2023/01/23 04:08:23;;;;;;;;;;;;;;;-5.12;100.00;97618.66;5039246;28;20277;-69
2023/01/23 04:10:48;;;;;;;;;;;;;;;-5.14;100.00;97623.44;5044530;28;19944;-67
2023/01/23 04:13:14;;;;;;;;;;;;;;;-5.15;100.00;97611.09;5039866;28;19920;-67
2023/01/23 04:15:39;;;;;;;;;;;;;;;-5.01;100.00;97609.72;5026415;28;19963;-67
2023/01/23 04:18:04;;;;;;;;;;;;;;;-4.99;100.00;97610.28;5040155;28;19963;-67
2023/01/23 04:20:29;;;;;;;;;;;;;;;-4.93;100.00;97614.69;5043384;28;20004;-67
2023/01/23 04:22:55;;;;;;;;;;;;;;;-4.83;100.00;97611.34;5044069;28;19924;-69
2023/01/23 04:25:21;;;;;;;;;;;;;;;-4.80;100.00;97613.53;5037358;28;19916;-69
2023/01/23 04:27:46;;;;;;;;;;;;;;;-4.75;100.00;97618.94;5042592;28;19924;-67
2023/01/23 04:30:11;;;;;;;;;;;;;;;-4.73;100.00;97611.50;5037518;28;19963;-70
2023/01/23 04:32:37;;;;;;;;;;;;;;;-4.67;100.00;97609.69;5043136;28;19921;-67
2023/01/23 04:35:02;;;;;;;;;;;;;;;-4.63;100.00;97611.66;5024257;28;19923;-67
2023/01/23 04:37:28;;;;;;;;;;;;;;;-4.56;100.00;97610.66;5023694;28;19924;-68
2023/01/23 04:39:53;;;;;;;;;;;;;;;-4.51;100.00;97608.84;5048040;28;19924;-68
2023/01/23 04:42:19;;;;;;;;;;;;;;;-4.49;100.00;97606.72;5038953;28;19928;-68
2023/01/23 04:44:44;;;;;;;;;;;;;;;-4.48;100.00;97596.88;5043908;28;19917;-68
2023/01/23 04:47:09;;;;;;;;;;;;;;;-4.29;100.00;97605.38;5038676;28;19916;-67
2023/01/23 04:49:34;;;;;;;;;;;;;;;-4.36;100.00;97604.75;5026099;28;19952;-69
2023/01/23 04:52:00;;;;;;;;;;;;;;;-4.30;100.00;97601.09;5038046;28;20016;-69
2023/01/23 04:54:25;;;;;;;;;;;;;;;-4.33;100.00;97598.91;5056926;28;19925;-67
2023/01/23 04:56:50;;;;;;;;;;;;;;;-4.29;100.00;97594.69;5055912;28;19916;-68
2023/01/23 04:59:16;;;;;;;;;;;;;;;-4.29;100.00;97602.72;5049109;28;19917;-67
2023/01/23 05:01:41;;;;;;;;;;;;;;;-4.23;100.00;97594.50;5042898;28;19960;-67
2023/01/23 05:04:07;;;;;;;;;;;;;;;-4.21;100.00;97591.59;5036623;28;19925;-67
2023/01/23 05:06:32;;;;;;;;;;;;;;;-4.24;100.00;97589.41;5028238;28;19918;-67
2023/01/23 05:08:57;;;;;;;;;;;;;;;-4.18;100.00;97595.63;5023664;28;19917;-68
2023/01/23 05:11:23;;;;;;;;;;;;;;;-4.24;100.00;97582.19;5019423;28;20381;-66
2023/01/23 05:13:48;;;;;;;;;;;;;;;-4.15;100.00;97585.22;5023664;28;19952;-69
2023/01/23 05:16:14;;;;;;;;;;;;;;;-4.13;100.00;97574.28;5031692;28;20009;-69
2023/01/23 05:18:39;;;;;;;;;;;;;;;-4.15;100.00;97566.50;5022031;28;19917;-68
2023/01/23 05:21:04;;;;;;;;;;;;;;;-4.14;100.00;97576.16;5018981;28;20028;-66
2023/01/23 05:23:30;;;;;;;;;;;;;;;-4.13;100.00;97580.44;5022417;28;19925;-69
2023/01/23 05:25:55;;;;;;;;;;;;;;;-4.08;100.00;97577.00;5022425;28;20306;-67
2023/01/23 05:28:20;;;;;;;;;;;;;;;-3.97;100.00;97580.63;5016521;28;19964;-69
2023/01/23 05:30:46;;;;;;;;;;;;;;;-4.01;100.00;97595.56;5023470;28;19917;-66
2023/01/23 05:33:11;;;;;;;;;;;;;;;-3.99;100.00;97594.25;5018276;28;19923;-68
2023/01/23 05:35:39;;;;;;;;;;;;;;;-3.97;100.00;97596.66;5022089;28;19917;-66
2023/01/23 05:38:05;;;;;;;;;;;;;;;-4.04;100.00;97589.63;5018353;28;19923;-65
2023/01/23 05:40:30;;;;;;;;;;;;;;;-4.01;100.00;97585.66;5053686;28;20430;-69
2023/01/23 05:42:56;;;;;;;;;;;;;;;-4.03;100.00;97604.63;5024222;28;19940;-68
2023/01/23 05:45:21;;;;;;;;;;;;;;;-4.00;100.00;97611.34;5063831;28;20221;-67
2023/01/23 05:47:46;;;;;;;;;;;;;;;-3.98;100.00;97624.47;5038566;28;19928;-68
2023/01/23 05:50:16;;;;;;;;;;;;;;;-3.88;100.00;97619.25;5033480;28;19943;-68
2023/01/23 05:52:41;;;;;;;;;;;;;;;-3.84;100.00;97618.47;5038352;28;19924;-68
2023/01/23 05:55:07;;;;;;;;;;;;;;;-3.91;100.00;97619.75;5017655;28;19921;-68
2023/01/23 05:57:33;;;;;;;;;;;;;;;-3.90;100.00;97624.84;5005401;28;19978;-68
2023/01/23 05:59:58;;;;;;;;;;;;;;;-3.78;100.00;97631.94;5023376;28;19956;-68
2023/01/23 06:02:24;;;;;;;;;;;;;;;-3.95;100.00;97627.47;5017906;28;19925;-68
2023/01/23 06:04:49;;;;;;;;;;;;;;;-3.93;100.00;97628.03;5022726;28;20386;-68
2023/01/23 06:07:16;;;;;;;;;;;;;;;-3.87;100.00;97615.50;5016627;28;19949;-68
2023/01/23 06:09:41;;;;;;;;;;;;;;;-3.82;100.00;97633.50;5021945;28;20358;-70
2023/01/23 06:12:07;;;;;;;;;;;;;;;-3.75;100.00;97634.13;5017411;28;19933;-69
2023/01/23 06:14:32;;;;;;;;;;;;;;;-3.75;100.00;97634.13;5020189;28;19964;-68
2023/01/23 06:16:57;;;;;;;;;;;;;;;-3.74;100.00;97641.09;5022604;28;19917;-69
2023/01/23 06:19:22;;;;;;;;;;;;;;;-3.74;100.00;97647.25;5014854;28;19921;-67
2023/01/23 06:21:48;;;;;;;;;;;;;;;-3.67;100.00;97642.50;5021867;28;19925;-68
2023/01/23 06:24:13;;;;;;;;;;;;;;;-3.67;100.00;97650.53;5019011;28;19925;-68
2023/01/23 06:26:38;;;;;;;;;;;;;;;-3.65;100.00;97650.28;5022825;28;19982;-68
2023/01/23 06:29:04;;;;;;;;;;;;;;;-3.65;100.00;97644.94;5020335;28;19940;-67
2023/01/23 06:31:31;;;;;;;;;;;;;;;-3.69;100.00;97647.31;5022684;28;19964;-68
2023/01/23 06:33:57;;;;;;;;;;;;;;;-3.71;100.00;97644.09;5020767;28;19929;-68
2023/01/23 06:36:22;;;;;;;;;;;;;;;-3.68;100.00;97648.13;5033688;28;19925;-67
2023/01/23 06:38:48;;;;;;;;;;;;;;;-3.66;100.00;97646.78;5022290;28;19917;-66
2023/01/23 06:41:13;;;;;;;;;;;;;;;-3.72;100.00;97647.81;5017202;28;19917;-67
2023/01/23 06:43:38;;;;;;;;;;;;;;;-3.74;100.00;97654.47;5032062;28;20306;-68
2023/01/23 06:46:06;;;;;;;;;;;;;;;-3.77;100.00;97649.63;5033106;28;19924;-67
2023/01/23 06:48:31;;;;;;;;;;;;;;;-3.76;100.00;97644.03;5034198;28;19917;-67
2023/01/23 06:50:58;;;;;;;;;;;;;;;-3.76;100.00;97644.03;5029406;28;19924;-65
2023/01/23 06:53:23;;;;;;;;;;;;;;;-3.67;100.00;97636.34;5022909;28;19941;-66
2023/01/23 06:55:49;;;;;;;;;;;;;;;-3.64;100.00;97649.22;5027057;28;20271;-66
2023/01/23 06:58:14;;;;;;;;;;;;;;;-3.52;100.00;97639.19;5020276;28;19917;-66
2023/01/23 07:00:43;;;;;;;;;;;;;;;-3.53;100.00;97648.28;5024616;28;19925;-67
2023/01/23 07:03:09;;;;;;;;;;;;;;;-3.51;100.00;97646.16;5019348;28;19931;-68
2023/01/23 07:05:35;;;;;;;;;;;;;;;-3.49;100.00;97651.28;5023717;28;20361;-67
2023/01/23 07:08:01;;;;;;;;;;;;;;;-3.43;100.00;97658.28;5041284;28;20612;-68
2023/01/23 07:10:26;;;;;;;;;;;;;;;-3.43;100.00;97660.16;5044057;28;19921;-68
2023/01/23 07:12:52;;;;;;;;;;;;;;;-3.32;100.00;97648.47;5039586;28;19917;-68
2023/01/23 07:15:17;;;;;;;;;;;;;;;-3.40;100.00;97646.25;5022180;28;19917;-68
2023/01/23 07:17:42;;;;;;;;;;;;;;;-3.39;100.00;97637.16;5024902;28;19917;-68
2023/01/23 07:20:08;;;;;;;;;;;;;;;-3.41;100.00;97637.41;5029773;28;19918;-67
2023/01/23 07:22:33;;;;;;;;;;;;;;;-3.33;100.00;97644.16;5042132;28;19975;-68
2023/01/23 07:24:58;;;;;;;;;;;;;;;-3.43;100.00;97647.56;5035653;28;19917;-67
2023/01/23 07:27:24;;;;;;;;;;;;;;;-3.41;100.00;97645.44;5029614;28;19925;-68
2023/01/23 07:29:49;;;;;;;;;;;;;;;-3.37;100.00;97646.53;5025255;28;19917;-68
2023/01/23 07:32:15;;;;;;;;;;;;;;;-3.36;100.00;97652.72;5020479;28;20015;-66
2023/01/23 07:34:40;;;;;;;;;;;;;;;-3.34;100.00;97661.31;5025201;28;19917;-66
2023/01/23 07:37:05;;;;;;;;;;;;;;;-3.32;100.00;97657.31;5019728;28;20047;-66
2023/01/23 07:39:31;;;;;;;;;;;;;;;-3.27;100.00;97652.00;5024659;28;20256;-67
2023/01/23 07:41:56;;;;;;;;;;;;;;;-3.27;100.00;97656.56;5024939;28;19963;-69
2023/01/23 07:44:22;;;;;;;;;;;;;;;-3.27;100.00;97661.94;5019256;28;19932;-66
2023/01/23 07:46:47;;;;;;;;;;;;;;;-3.26;100.00;97663.53;5024802;28;19917;-67
2023/01/23 07:49:13;;;;;;;;;;;;;;;-3.28;100.00;97662.97;5017928;28;19971;-67
2023/01/23 07:51:39;;;;;;;;;;;;;;;-3.19;100.00;97641.91;5023112;28;19921;-67
2023/01/23 07:54:04;;;;;;;;;;;;;;;-3.19;100.00;97663.34;5020713;28;19963;-67
2023/01/23 07:56:30;;;;;;;;;;;;;;;-3.13;100.00;97665.00;5024094;28;19925;-68
2023/01/23 07:58:55;;;;;;;;;;;;;;;-3.13;100.00;97656.97;5022946;28;19983;-66
2023/01/23 08:01:20;;;;;;;;;;;;;;;-3.07;100.00;97666.66;5018471;28;19925;-67
2023/01/23 08:03:46;;;;;;;;;;;;;;;-3.01;100.00;97662.94;5039823;28;19921;-68
2023/01/23 08:06:11;;;;;;;;;;;;;;;-2.99;100.00;97652.81;5019627;28;20366;-67
2023/01/23 08:08:37;;;;;;;;;;;;;;;-2.99;100.00;97662.69;5023342;28;19918;-67
2023/01/23 08:11:03;;;;;;;;;;;;;;;-2.99;100.00;97666.22;5038512;28;19993;-67
2023/01/23 08:13:28;;;;;;;;;;;;;;;-2.93;100.00;97650.97;5026113;28;19921;-69
2023/01/23 08:15:54;;;;;;;;;;;;;;;-2.91;100.00;97654.19;5067718;28;19966;-67
2023/01/23 08:18:20;;;;;;;;;;;;;;;-2.83;100.00;97648.34;5031361;28;19925;-68
2023/01/23 08:20:51;;;;;;;;;;;;;;;-2.79;100.00;97645.97;5070701;28;19925;-66
2023/01/23 08:23:16;;;;;;;;;;;;;;;-2.71;100.00;97637.47;5032359;28;19976;-65
2023/01/23 08:25:42;;;;;;;;;;;;;;;-2.77;100.00;97647.34;5036867;28;19917;-67
2023/01/23 08:28:07;;;;;;;;;;;;;;;-2.66;100.00;97634.81;5025658;28;19917;-68
2023/01/23 08:30:32;;;;;;;;;;;;;;;-2.72;100.00;97646.56;5028472;28;19917;-67
2023/01/23 08:32:58;;;;;;;;;;;;;;;-2.66;100.00;97650.91;5033090;28;19928;-67
2023/01/23 08:35:24;;;;;;;;;;;;;;;-2.66;100.00;97650.09;5049712;28;20000;-67
2023/01/23 08:37:49;;;;;;;;;;;;;;;-2.74;100.00;97656.72;5037680;28;19924;-67
2023/01/23 08:40:14;;;;;;;;;;;;;;;-2.71;100.00;97656.22;5033003;28;19917;-66
2023/01/23 08:42:39;;;;;;;;;;;;;;;-2.76;100.00;97656.97;5066356;28;19921;-67
2023/01/23 08:45:05;;;;;;;;;;;;;;;-2.73;100.00;97653.00;5022360;28;20057;-68
2023/01/23 08:47:35;;;;;;;;;;;;;;;-2.72;100.00;97654.59;5010008;28;19928;-67
2023/01/23 08:50:00;;;;;;;;;;;;;;;-2.68;100.00;97661.09;5059270;28;19921;-67
2023/01/23 08:52:25;;;;;;;;;;;;;;;-2.76;100.00;97666.91;5021909;28;20416;-67
2023/01/23 08:54:51;;;;;;;;;;;;;;;-2.65;100.00;97665.91;5027266;28;20363;-67
2023/01/23 08:57:16;;;;;;;;;;;;;;;-2.72;100.00;97666.16;5022369;28;19920;-66
2023/01/23 08:59:43;;;;;;;;;;;;;;;-2.51;100.00;97663.59;5027791;28;19920;-66
2023/01/23 09:02:10;;;;;;;;;;;;;;;-2.68;100.00;97671.81;5020995;28;19931;-66
2023/01/23 09:04:35;;;;;;;;;;;;;;;-2.74;100.00;97659.41;5025896;28;20486;-66
2023/01/23 09:07:00;;;;;;;;;;;;;;;-2.80;100.00;97652.41;5026360;28;19925;-66
2023/01/23 09:09:27;;;;;;;;;;;;;;;-2.79;100.00;97662.88;5036828;28;20338;-66
2023/01/23 09:11:53;;;;;;;;;;;;;;;-2.78;100.00;97652.97;5028565;28;20298;-65
2023/01/23 09:14:18;;;;;;;;;;;;;;;-2.81;100.00;97666.88;5053431;28;19917;-67
2023/01/23 09:16:43;;;;;;;;;;;;;;;-2.83;100.00;97643.00;5053221;28;19936;-65
2023/01/23 09:19:10;;;;;;;;;;;;;;;-2.76;100.00;97661.53;5003082;28;19927;-65
2023/01/23 09:21:36;;;;;;;;;;;;;;;-2.81;100.00;97651.59;5021269;28;19925;-66
2023/01/23 09:24:01;;;;;;;;;;;;;;;-2.79;100.00;97657.53;5025983;28;20436;-66
2023/01/23 09:26:26;;;;;;;;;;;;;;;-2.67;100.00;97653.84;5028216;28;19917;-67
2023/01/23 09:28:53;;;;;;;;;;;;;;;-2.67;100.00;97660.00;5044540;28;19943;-66
2023/01/23 09:31:18;;;;;;;;;;;;;;;-2.65;100.00;97655.19;5024660;28;20048;-66
2023/01/23 09:33:44;;;;;;;;;;;;;;;-2.65;100.00;97657.88;5029635;28;19921;-66
2023/01/23 09:36:09;;;;;;;;;;;;;;;-2.52;100.00;97660.13;5025547;28;19995;-67
2023/01/23 09:38:34;;;;;;;;;;;;;;;-2.64;100.00;97642.59;5031726;28;19924;-66
2023/01/23 09:41:06;;;;;;;;;;;;;;;-2.63;100.00;97650.41;5030178;28;19944;-66
2023/01/23 09:43:44;;;;;;;;;;;;;;;-2.63;100.00;97653.09;5029374;28;19947;-66
2023/01/23 09:46:12;;;;;;;;;;;;;;;-2.57;100.00;97653.91;5041926;28;19990;-66
2023/01/23 09:48:47;;;;;;;;;;;;;;;-2.59;100.00;97642.63;5031847;28;19971;-66
2023/01/23 09:51:15;;;;;;;;;;;;;;;-2.60;100.00;97638.34;5049310;28;19917;-66
2023/01/23 09:53:41;;;;;;;;;;;;;;;-2.57;100.00;97646.66;5038976;28;19924;-66
2023/01/23 09:56:19;;;;;;;;;;;;;;;-2.51;100.00;97645.63;5053129;28;19917;-66
2023/01/23 09:59:04;;;;;;;;;;;;;;;-2.46;100.00;97646.75;5060515;28;19944;-67
2023/01/23 10:01:30;;;;;;;;;;;;;;;-2.46;100.00;97644.88;5051536;28;20023;-66
2023/01/23 10:03:57;;;;;;;;;;;;;;;-2.44;100.00;97641.94;5046752;28;19968;-65
2023/01/23 10:06:23;;;;;;;;;;;;;;;-2.40;100.00;97635.75;5072611;28;21156;-68
2023/01/23 10:09:08;;;;;;;;;;;;;;;-2.42;100.00;97640.59;5052233;28;19917;-65
2023/01/23 10:11:52;;;;;;;;;;;;;;;-2.33;100.00;97630.97;5044697;28;19964;-67
2023/01/23 10:14:38;;;;;;;;;;;;;;;-2.36;100.00;97633.38;5041556;28;19917;-66
2023/01/23 10:17:13;;;;;;;;;;;;;;;-2.33;100.00;97622.94;5076371;28;19917;-66
2023/01/23 10:20:01;;;;;;;;;;;;;;;-2.28;100.00;97632.09;5049032;28;19927;-66
2023/01/23 10:22:27;;;;;;;;;;;;;;;-2.27;100.00;97618.38;5027661;28;19925;-66
2023/01/23 10:24:53;;;;;;;;;;;;;;;-2.22;100.00;97617.63;5049543;28;19970;-66
2023/01/23 10:27:22;;;;;;;;;;;;;;;-2.19;100.00;97609.06;5065981;28;19917;-66
2023/01/23 10:29:51;;;;;;;;;;;;;;;-2.17;100.00;97604.22;5065068;28;19917;-67
2023/01/23 10:32:24;;;;;;;;;;;;;;;-2.18;100.00;97610.66;5057087;28;19956;-66
2023/01/23 10:34:55;;;;;;;;;;;;;;;-2.07;100.00;97596.22;5038851;28;19917;-66
2023/01/23 10:37:39;;;;;;;;;;;;;;;-2.09;100.00;97600.22;5048590;28;19929;-65
2023/01/23 10:43:13;;;;;;;;;;;;;;;-2.11;100.00;97587.06;5045862;28;20274;-66
2023/01/23 10:45:39;;;;;;;;;;;;;;;-2.09;100.00;97594.84;5049638;28;19916;-66
2023/01/23 10:48:24;;;;;;;;;;;;;;;-2.09;100.00;97568.00;5026649;28;20007;-65
2023/01/23 10:50:50;;;;;;;;;;;;;;;-2.05;100.00;97569.91;5030727;28;19963;-68
2023/01/23 10:53:18;;;;;;;;;;;;;;;-2.05;100.00;97580.66;5054272;28;19944;-68
2023/01/23 10:55:44;;;;;;;;;;;;;;;-1.98;100.00;97564.28;5058341;28;19917;-65
2023/01/23 10:58:21;;;;;;;;;;;;;;;-1.97;100.00;97565.91;5073226;28;19988;-66
2023/01/23 11:00:47;;;;;;;;;;;;;;;-1.90;100.00;97562.97;5049126;28;19928;-66
2023/01/23 11:03:19;;;;;;;;;;;;;;;-1.83;100.00;97553.59;5045457;28;19995;-66
2023/01/23 11:05:49;;;;;;;;;;;;;;;-1.72;100.00;97562.47;5081497;28;20297;-66
2023/01/23 11:08:29;;;;;;;;;;;;;;;-1.70;100.00;97560.31;5046197;28;20316;-67
2023/01/23 11:11:13;;;;;;;;;;;;;;;-1.83;100.00;97555.47;5080510;28;20432;-66
2023/01/23 11:13:39;;;;;;;;;;;;;;;-1.72;100.00;97543.69;5035610;28;19932;-67
2023/01/23 11:16:04;;;;;;;;;;;;;;;-1.64;100.00;97534.28;5024470;28;19917;-65
2023/01/23 11:18:32;;;;;;;;;;;;;;;-1.68;100.00;97528.63;5029492;28;19917;-68
2023/01/23 11:20:57;;;;;;;;;;;;;;;-1.62;100.00;97530.28;5030723;28;19917;-68
2023/01/23 11:23:23;;;;;;;;;;;;;;;-1.47;100.00;97525.97;5055270;28;19921;-68
2023/01/23 11:25:52;;;;;;;;;;;;;;;-1.44;100.00;97517.38;5060560;28;19940;-66
2023/01/23 11:28:25;;;;;;;;;;;;;;;-1.55;100.00;97521.94;5040256;28;19967;-66
2023/01/23 11:30:51;;;;;;;;;;;;;;;-1.59;100.00;97523.53;5043257;28;19917;-65
2023/01/23 11:33:35;;;;;;;;;;;;;;;-1.55;100.00;97516.56;5024459;28;19924;-68
2023/01/23 11:36:06;;;;;;;;;;;;;;;-1.61;100.00;97517.63;5029079;28;19917;-66
2023/01/23 11:38:36;;;;;;;;;;;;;;;-1.51;100.00;97519.50;5026629;28;20451;-66
2023/01/23 11:41:03;;;;;;;;;;;;;;;-1.59;100.00;97524.34;5026911;28;19923;-66
2023/01/23 11:43:28;;;;;;;;;;;;;;;-1.41;100.00;97522.22;5058904;28;19994;-67
2023/01/23 11:46:03;;;;;;;;;;;;;;;-1.43;100.00;97519.78;5027302;28;19921;-66
2023/01/23 11:48:48;;;;;;;;;;;;;;;-1.54;100.00;97508.22;5009601;28;20004;-66
2023/01/23 11:51:23;;;;;;;;;;;;;;;-1.56;100.00;97513.06;5056383;28;20004;-67
2023/01/23 11:53:56;;;;;;;;;;;;;;;-1.55;100.00;97500.44;5027662;28;19932;-66
2023/01/23 11:56:35;;;;;;;;;;;;;;;-1.40;100.00;97505.03;5027988;28;19925;-67
2023/01/23 11:59:00;;;;;;;;;;;;;;;-1.39;100.00;97494.00;5059647;28;19924;-65
2023/01/23 12:01:44;;;;;;;;;;;;;;;-1.53;100.00;97490.25;5024792;28;19921;-67
2023/01/23 12:04:28;;;;;;;;;;;;;;;-1.47;100.00;97491.84;5055677;28;19921;-66
2023/01/23 12:06:53;;;;;;;;;;;;;;;-1.47;100.00;97497.22;5060589;28;20013;-66
2023/01/23 12:09:20;;;;;;;;;;;;;;;-1.43;100.00;97500.19;5056015;28;19971;-66
2023/01/23 12:11:57;;;;;;;;;;;;;;;-1.46;100.00;97474.66;5027722;28;19921;-67
2023/01/23 12:14:27;;;;;;;;;;;;;;;-1.46;100.00;97471.16;5038922;28;20930;-68
2023/01/23 12:17:00;;;;;;;;;;;;;;;-1.46;100.00;97487.28;5028639;28;19921;-68
2023/01/23 12:19:32;;;;;;;;;;;;;;;-1.36;100.00;97485.38;5030763;28;20007;-68
2023/01/23 12:22:13;;;;;;;;;;;;;;;-1.37;100.00;97486.47;5041448;28;19921;-67
2023/01/23 12:24:57;;;;;;;;;;;;;;;-1.34;100.00;97469.00;5038366;28;19921;-67
2023/01/23 12:27:23;;;;;;;;;;;;;;;-1.34;100.00;97477.06;5062422;28;20355;-68
2023/01/23 12:30:10;;;;;;;;;;;;;;;-1.28;100.00;97480.53;5027593;28;20351;-68
2023/01/23 12:32:38;;;;;;;;;;;;;;;-1.27;100.00;97460.66;5025579;28;19997;-68
2023/01/23 12:35:22;;;;;;;;;;;;;;;-1.29;100.00;97465.50;5023471;28;19967;-67
2023/01/23 12:38:10;;;;;;;;;;;;;;;-1.29;100.00;97454.75;5027913;28;20349;-67
2023/01/23 12:40:41;;;;;;;;;;;;;;;-1.28;100.00;97462.53;5026536;28;20369;-67
2023/01/23 12:43:33;;;;;;;;;;;;;;;-1.26;100.00;97454.19;5020651;28;19936;-67
2023/01/23 12:46:10;;;;;;;;;;;;;;;-1.26;100.00;97460.41;5024023;28;20345;-67
2023/01/23 12:48:45;;;;;;;;;;;;;;;-1.26;100.00;97460.41;5041400;28;19921;-67
2023/01/23 12:51:17;;;;;;;;;;;;;;;-1.24;100.00;97460.94;5023367;28;19963;-67